Hesperides — EBBW — position and weather

sailwx.info

Track history (hours):
 
Tides and Currents Weather Stations Pressure Air Temp Water Temp Dewpoint Dewpoint Depression Visibility Wind Speed Wind Dir Waves Ship Positions

Oceanographic research ship Hesperides (Spain)

Detailed information on ship capabilities available from University of Delaware's Ocean Information Center.

Last reported at 2019-Jun-11 21:26 UTC. Time now 2019-Jul-22 13:47 UTC.
Position N 28°48' W 015°23'.
Warning: this ship's position is 40 days out of date.

Length 82 m; draft 5.5 m.

Type: Ship. MMSI: 224886000.

Date/timePositionNaut miles runAvg speedWind from/ knotsBaromVisibWave heightAir tempDewpointWater temp
2019-Jun-11 21:26N 28°48' W 015°23'4 8.7
2019-Jun-11 21:00N 28°44' W 015°22'4 8.7
2019-Jun-11 20:30N 28°40' W 015°22'4 7.6
2019-Jun-11 20:00N 28°36' W 015°21'4 8.5
2019-Jun-11 19:30N 28°32' W 015°20'4 8.5
2019-Jun-11 19:00N 28°27' W 015°20'4 8.6
2019-Jun-11 18:30N 28°23' W 015°20'4 8.8
2019-Jun-11 18:00N 28°19' W 015°20'3 6.9
2019-Jun-11 17:30N 28°15' W 015°20'4 8.7
2019-Jun-11 17:00N 28°11' W 015°20'4 7.5
2019-Jun-11 16:31N 28°07' W 015°22'3 5.4
2019-Jun-11 16:00N 28°08' W 015°25'0 0.2
2019-Jun-11 15:31N 28°08' W 015°25'0 0.0
2019-Jun-11 15:00N 28°08' W 015°25'0 0.1
2019-Jun-11 14:31N 28°08' W 015°25'0 0.1
2019-Jun-11 14:01N 28°08' W 015°25'2 3.8
2019-Jun-11 13:31N 28°07' W 015°23'2 3.8
2019-Jun-11 13:01N 28°06' W 015°21'4 8.1
2019-Jun-11 12:31N 28°10' W 015°21'611.0
2019-Jun-11 12:01N 28°16' W 015°20'611.1
2019-Jun-11 11:31N 28°21' W 015°20'511.0
2019-Jun-11 11:01N 28°27' W 015°21'611.1
2019-Jun-11 10:31N 28°32' W 015°20'3 5.1
2019-Jun-11 10:00N 28°35' W 015°21'2 4.6
2019-Jun-11 09:30N 28°33' W 015°22'3 5.4
2019-Jun-11 09:00N 28°30' W 015°24'3 5.4
2019-Jun-11 08:30N 28°32' W 015°26'610.9
2019-Jun-11 08:00N 28°37' W 015°29'  
Track history (hours):
 
Tides and Currents Weather Stations Pressure Air Temp Water Temp Dewpoint Dewpoint Depression Visibility Wind Speed Wind Dir Waves Ship Positions

Oceanographic research ship Hesperides (Spain)

Detailed information on ship capabilities available from University of Delaware's Ocean Information Center.

Last reported at 2019-Jun-11 21:26 UTC. Time now 2019-Jul-22 13:47 UTC.
Position N 28°48' W 015°23'.
Warning: this ship's position is 40 days out of date.

Length 82 m; draft 5.5 m.

Type: Ship. MMSI: 224886000.

Date/timePositionNaut miles runAvg speedWind from/ knotsBaromVisibWave heightAir tempDewpointWater temp
2019-Jun-11 21:26N 28°48' W 015°23'4 8.7
2019-Jun-11 21:00N 28°44' W 015°22'4 8.7
2019-Jun-11 20:30N 28°40' W 015°22'4 7.6
2019-Jun-11 20:00N 28°36' W 015°21'4 8.5
2019-Jun-11 19:30N 28°32' W 015°20'4 8.5
2019-Jun-11 19:00N 28°27' W 015°20'4 8.6
2019-Jun-11 18:30N 28°23' W 015°20'4 8.8
2019-Jun-11 18:00N 28°19' W 015°20'3 6.9
2019-Jun-11 17:30N 28°15' W 015°20'4 8.7
2019-Jun-11 17:00N 28°11' W 015°20'4 7.5
2019-Jun-11 16:31N 28°07' W 015°22'3 5.4
2019-Jun-11 16:00N 28°08' W 015°25'0 0.2
2019-Jun-11 15:31N 28°08' W 015°25'0 0.0
2019-Jun-11 15:00N 28°08' W 015°25'0 0.1
2019-Jun-11 14:31N 28°08' W 015°25'0 0.1
2019-Jun-11 14:01N 28°08' W 015°25'2 3.8
2019-Jun-11 13:31N 28°07' W 015°23'2 3.8
2019-Jun-11 13:01N 28°06' W 015°21'4 8.1
2019-Jun-11 12:31N 28°10' W 015°21'611.0
2019-Jun-11 12:01N 28°16' W 015°20'611.1
2019-Jun-11 11:31N 28°21' W 015°20'511.0
2019-Jun-11 11:01N 28°27' W 015°21'611.1
2019-Jun-11 10:31N 28°32' W 015°20'3 5.1
2019-Jun-11 10:00N 28°35' W 015°21'2 4.6
2019-Jun-11 09:30N 28°33' W 015°22'3 5.4
2019-Jun-11 09:00N 28°30' W 015°24'3 5.4
2019-Jun-11 08:30N 28°32' W 015°26'610.9
2019-Jun-11 08:00N 28°37' W 015°29'  

Dump ship's entire track history